createdAt,value
2017-10-11T00:01:28.487Z,84.79
2017-10-11T00:04:25.273Z,84.70
2017-10-11T00:07:22.348Z,85.11
2017-10-11T00:10:19.087Z,85.13
2017-10-11T00:13:16.570Z,84.84
2017-10-11T00:16:13.690Z,84.84
2017-10-11T00:19:10.849Z,84.72
2017-10-11T00:21:36.657Z,84.66
2017-10-11T00:24:27.446Z,84.64
2017-10-11T00:27:24.710Z,84.77
2017-10-11T00:30:22.443Z,85.38
2017-10-11T00:33:20.422Z,85.40
2017-10-11T00:36:17.472Z,86.07
2017-10-11T00:39:14.597Z,86.22
2017-10-11T00:45:01.419Z,85.61
2017-10-11T00:47:51.281Z,85.42
2017-10-11T01:07:17.728Z,86.37
2017-10-11T01:10:07.098Z,86.40
2017-10-11T01:13:04.306Z,86.46
2017-10-11T01:16:02.193Z,86.27
2017-10-11T01:18:59.908Z,85.90
2017-10-11T01:21:57.389Z,85.87
2017-10-11T01:31:05.798Z,86.68
2017-10-11T01:33:55.752Z,86.75
2017-10-11T01:36:52.969Z,86.49
2017-10-11T01:39:50.663Z,86.16
2017-10-11T01:42:48.698Z,86.38
2017-10-11T01:45:45.756Z,86.90
2017-10-11T01:48:42.705Z,86.91
2017-10-11T01:54:30.318Z,87.10
2017-10-11T01:57:20.025Z,86.92
2017-10-11T02:00:17.760Z,87.04
2017-10-11T02:16:07.702Z,86.15
2017-10-11T02:35:50.825Z,84.73
2017-10-11T02:38:16.621Z,84.96
2017-10-11T02:57:52.412Z,85.86
2017-10-11T03:00:18.209Z,85.50
2017-10-11T03:19:54.181Z,85.27
2017-10-11T03:22:19.983Z,85.51
2017-10-11T03:41:54.974Z,86.17
2017-10-11T03:44:20.804Z,86.17
2017-10-11T03:47:10.005Z,86.20
2017-10-11T03:50:07.361Z,86.14
2017-10-11T04:09:20.814Z,86.32
2017-10-11T04:12:17.369Z,86.39
2017-10-11T04:15:14.946Z,86.33
2017-10-11T04:27:55.506Z,87.04
2017-10-11T04:47:26.458Z,88.71
2017-10-11T04:49:52.249Z,89.30
2017-10-11T04:52:40.976Z,89.52
2017-10-11T04:55:38.297Z,89.61
2017-10-11T05:14:43.278Z,88.51
2017-10-11T05:17:40.122Z,88.46
2017-10-11T05:20:36.733Z,88.00
2017-10-11T05:23:40.061Z,87.91
2017-10-11T05:26:36.609Z,87.71
2017-10-11T05:35:43.351Z,87.68
2017-10-11T05:38:32.690Z,87.52
2017-10-11T05:41:29.242Z,87.43
2017-10-11T05:57:16.645Z,86.75
2017-10-11T06:00:05.287Z,86.42
2017-10-11T06:19:12.883Z,85.16
2017-10-11T06:22:01.488Z,85.10
2017-10-11T06:41:09.378Z,85.05
2017-10-11T06:43:58.810Z,84.83
2017-10-11T06:46:56.273Z,84.62
2017-10-11T07:02:43.806Z,83.50
2017-10-11T07:05:33.211Z,83.15
2017-10-11T07:08:30.614Z,82.78
2017-10-11T07:11:28.042Z,78.89
2017-10-11T07:14:25.394Z,73.43
2017-10-11T07:17:21.998Z,71.79
2017-10-11T07:20:18.810Z,73.33
2017-10-11T07:23:15.558Z,74.17
2017-10-11T07:42:22.206Z,63.58
2017-10-11T07:45:18.741Z,60.74
2017-10-11T07:47:44.507Z,59.49
2017-10-11T07:50:33.839Z,59.05
2017-10-11T08:09:42.154Z,56.69
2017-10-11T08:32:03.348Z,70.07
2017-10-11T08:51:34.291Z,70.30
2017-10-11T09:10:40.867Z,71.78
2017-10-11T09:13:37.414Z,71.29
2017-10-11T09:16:03.202Z,71.43
2017-10-11T09:35:33.975Z,70.95
2017-10-11T09:37:59.728Z,71.04
2017-10-11T09:40:49.166Z,71.46
2017-10-11T09:43:45.694Z,70.37
2017-10-11T09:46:42.207Z,69.96
2017-10-11T09:49:38.835Z,69.46
2017-10-11T09:59:28.463Z,66.55
2017-10-11T10:02:18.174Z,66.10
2017-10-11T10:21:25.455Z,64.68
2017-10-11T10:40:56.634Z,61.82
2017-10-11T11:00:03.216Z,58.56
2017-10-11T11:05:49.131Z,59.94
2017-10-11T11:08:38.608Z,59.81
2017-10-11T11:11:36.113Z,59.50
2017-10-11T11:14:32.638Z,56.53
2017-10-11T11:27:16.600Z,50.18
2017-10-11T11:38:36.534Z,44.84
2017-10-11T11:41:02.278Z,45.55
2017-10-11T11:43:28.027Z,47.18
2017-10-11T11:45:53.782Z,50.23
2017-10-11T11:48:19.763Z,51.49
2017-10-11T11:50:45.507Z,50.30
2017-10-11T11:53:11.290Z,50.40
2017-10-11T11:55:37.046Z,50.48
2017-10-11T11:58:02.798Z,49.18
2017-10-11T12:00:31.107Z,49.47
2017-10-11T12:02:57.142Z,49.87
2017-10-11T12:05:22.898Z,51.34
2017-10-11T12:07:48.674Z,52.14
2017-10-11T12:10:14.426Z,53.25
2017-10-11T12:12:40.199Z,51.48
2017-10-11T12:15:05.967Z,52.42
2017-10-11T12:17:31.709Z,52.11
2017-10-11T12:19:57.468Z,50.19
2017-10-11T12:22:23.214Z,48.75
2017-10-11T12:24:49.822Z,50.23
2017-10-11T12:27:15.565Z,51.88
2017-10-11T12:29:41.330Z,51.39
2017-10-11T12:32:07.088Z,51.92
2017-10-11T12:34:32.850Z,51.85
2017-10-11T12:36:58.691Z,51.90
2017-10-11T12:39:25.514Z,51.92
2017-10-11T12:41:51.868Z,52.44
2017-10-11T12:44:17.994Z,53.63
2017-10-11T12:46:44.063Z,53.05
2017-10-11T12:49:10.128Z,52.17
2017-10-11T12:51:36.541Z,52.64
2017-10-11T12:54:02.566Z,51.46
2017-10-11T12:56:29.686Z,51.93
2017-10-11T12:58:56.077Z,53.24
2017-10-11T13:01:22.335Z,53.54
2017-10-11T13:03:48.566Z,53.12
2017-10-11T13:06:15.258Z,48.95
2017-10-11T13:08:41.794Z,50.29
2017-10-11T13:11:08.496Z,51.65
2017-10-11T13:13:35.706Z,49.19
2017-10-11T13:16:02.394Z,49.61
2017-10-11T13:18:28.718Z,51.00
2017-10-11T13:20:55.387Z,50.31
2017-10-11T13:23:21.246Z,49.73
2017-10-11T13:25:46.979Z,50.70
2017-10-11T13:28:12.758Z,51.75
2017-10-11T13:30:38.604Z,53.46
2017-10-11T13:33:04.535Z,53.47
2017-10-11T13:35:30.385Z,52.68
2017-10-11T13:37:56.238Z,51.33
2017-10-11T13:40:21.996Z,51.42
2017-10-11T13:42:47.876Z,51.82
2017-10-11T13:45:13.620Z,51.07
2017-10-11T13:47:39.378Z,52.01
2017-10-11T13:50:05.163Z,52.12
2017-10-11T13:52:30.932Z,50.19
2017-10-11T13:54:56.710Z,49.88
2017-10-11T13:57:22.467Z,51.14
2017-10-11T13:59:48.207Z,51.97
2017-10-11T14:02:13.984Z,50.57
2017-10-11T14:04:39.745Z,51.04
2017-10-11T14:07:05.582Z,50.57
2017-10-11T14:09:31.332Z,50.59
2017-10-11T14:11:57.146Z,49.39
2017-10-11T14:14:22.938Z,48.62
2017-10-11T14:16:48.679Z,49.14
2017-10-11T14:19:14.592Z,50.80
2017-10-11T14:21:40.434Z,51.76
2017-10-11T14:24:06.247Z,51.12
2017-10-11T14:26:32.040Z,48.22
2017-10-11T14:28:57.907Z,48.13
2017-10-11T14:31:23.646Z,48.52
2017-10-11T14:33:49.526Z,47.94
2017-10-11T14:36:15.279Z,49.06
2017-10-11T14:38:41.038Z,50.09
2017-10-11T14:41:06.834Z,47.69
2017-10-11T14:43:32.919Z,48.49
2017-10-11T14:45:59.091Z,48.21
2017-10-11T14:48:25.599Z,48.46
2017-10-11T14:53:17.990Z,49.26
2017-10-11T14:55:44.247Z,47.52
2017-10-11T14:58:09.994Z,48.48
2017-10-11T15:00:35.794Z,46.51
2017-10-11T15:03:01.611Z,46.28
2017-10-11T15:05:27.347Z,46.65
2017-10-11T15:07:53.115Z,47.28
2017-10-11T15:10:18.902Z,46.50
2017-10-11T15:12:44.638Z,46.42
2017-10-11T15:15:10.396Z,46.66
2017-10-11T15:17:36.710Z,45.80
2017-10-11T15:20:02.481Z,45.70
2017-10-11T15:22:28.315Z,45.27
2017-10-11T15:24:54.059Z,45.08
2017-10-11T15:27:19.822Z,44.56
2017-10-11T15:29:45.551Z,44.95
2017-10-11T15:32:11.300Z,45.29
2017-10-11T15:34:37.067Z,45.01
2017-10-11T15:37:26.086Z,45.43
2017-10-11T15:40:23.046Z,45.25
2017-10-11T15:56:11.405Z,44.49
2017-10-11T16:15:43.660Z,48.37
2017-10-11T16:18:09.435Z,48.92
2017-10-11T16:20:58.871Z,49.32
2017-10-11T16:23:55.766Z,50.13
2017-10-11T16:26:53.192Z,51.20
2017-10-11T16:39:47.627Z,56.47
2017-10-11T16:42:36.214Z,57.21
2017-10-11T17:01:44.262Z,63.40
2017-10-11T17:04:33.876Z,64.17
2017-10-11T17:23:44.039Z,68.79
2017-10-11T17:26:33.582Z,69.05
2017-10-11T17:29:30.775Z,69.40
2017-10-11T17:48:38.162Z,70.07
2017-10-11T18:07:46.161Z,72.83
2017-10-11T18:10:35.114Z,72.82
2017-10-11T18:29:43.005Z,74.25
2017-10-11T18:32:32.390Z,74.39
2017-10-11T18:35:29.260Z,74.48
2017-10-11T18:54:35.902Z,75.48
2017-10-11T19:13:43.986Z,76.79
2017-10-11T19:33:17.597Z,77.18
2017-10-11T19:35:43.343Z,77.50
2017-10-11T19:38:32.778Z,77.78
2017-10-11T19:57:41.779Z,78.95
2017-10-11T20:17:13.758Z,81.16
2017-10-11T20:36:21.896Z,78.46
2017-10-11T20:39:18.703Z,78.07
2017-10-11T20:41:44.459Z,78.28
2017-10-11T20:44:33.223Z,78.42
2017-10-11T21:03:43.062Z,80.02
2017-10-11T21:06:32.439Z,80.08
2017-10-11T21:09:28.974Z,80.43
2017-10-11T21:12:26.470Z,80.10
2017-10-11T21:15:23.042Z,79.82
2017-10-11T21:25:11.039Z,80.05
2017-10-11T21:27:59.894Z,79.91
2017-10-11T21:47:07.678Z,80.00
2017-10-11T21:49:56.911Z,80.26
2017-10-11T21:52:54.218Z,80.55
2017-10-11T21:55:51.016Z,80.49
2017-10-11T21:58:48.031Z,80.68
2017-10-11T22:01:44.815Z,82.01
2017-10-11T22:20:52.691Z,80.71
2017-10-11T22:23:49.432Z,80.62
2017-10-11T22:32:56.399Z,80.61
2017-10-11T22:35:45.354Z,80.18
2017-10-11T22:38:42.024Z,81.30
2017-10-11T22:41:38.703Z,80.10
2017-10-11T22:54:23.041Z,80.57
2017-10-11T22:57:12.367Z,81.14
2017-10-11T23:16:21.078Z,80.33
2017-10-11T23:35:52.858Z,80.16
2017-10-11T23:38:18.643Z,79.50
2017-10-11T23:57:50.795Z,78.02
